Pagina principale
METAR-TAF:

METAR-TAF

Aeroporti :

Taranto, Italia

Aeroporto di Taranto-Grottaglie

latitudine: 40-31N, longitudine: 017-24E, altezza: 64 m

Osservazione

Il bollettino è stato emesso 49 minuti fa, alle 12:50 UTC
Vento 7 kt da ovest
Temperature 26°C
Umidità 37%
Pressione 1009 hPa
Visibilità 10 km o più
nessuna nube inferiore a 1500 m e nessun cumulonembo

METAR: LIBG 191250Z 27007KT CAVOK 26/10 Q1009

Ora: 15:39 (13:39 UTC)

Previsione

Il bollettino è stato emesso 2 ore e 39 minuti fa, alle 11:00 UTC
Previsione valida dal 19 alle 12 UTC al 19 alle 21 UTC
Vento 12 kt da ovest/sud-ovest
Visibilità 10 km o più
Nubi sparse ad un'altezza di 3000 ft
Evoluzione graduale
dal 19 alle 18 UTC al 19 alle 21 UTC
Vento 12 kt da nord/nord-ovest

TAF: LIBG 191100Z 1912/1921 24012KT 9999 SCT030 BECMG 1918/1921 33012KT

Osservazioni e previsioni meteorologiche di più di 4000 aeroporti (messaggi METAR e TAF).

Le stazioni disponibili sono rappresentate dai dischi gialli e rossi sulla carta.

Puntare il mouse per vedere il nome della stazione.

Clicca sopra per visualizzare le osservazioni e previsioni meteorologiche.

Per cambiare la mappa : fare clic sui pulsanti verdi con una croce nera per ingrandire, il pulsante verde con un trattino per diminuire, o sulla freccia verde per le mappe adiacenti.


METAR-TAF: